Terminal Aerodrome Forecast
Issued by NWS

Home | Current Version | Previous Version | Graphics & Text | Print | Product List | Glossary On
Versions: 1 2 3 4 5 6 7 8 9 10 11 12 13 14 15 16 17 18 19
395
FTUS41 KCLE 202222 AAA
TAFFDY
TAF AMD
KFDY 202222Z 2022/2118 08012KT P6SM SCT008 BKN200
      TEMPO 2022/2024 BKN008
     FM210200 12012KT P6SM SCT008 BKN080
     FM210500 16008KT 5SM -SHRA VCTS OVC050CB
     FM210900 18008KT 4SM -RA BR OVC020
     FM211500 21015G25KT P6SM BKN025=

USA.gov is the U.S. government's official web portal to all federal, state and local government web resources and services.